Time;durP1;ratioP1;P1;durP2;ratioP2;P2;SDS_P1;SDS_P2;PMS_P1;PMS_P2;Temp;Humidity;BMP_temperature;BMP_pressure;BME280_temperature;BME280_humidity;BME280_pressure;Samples;Min_cycle;Max_cycle;Signal;HPM_P1;HPM_P2
2022/07/26 00:01:46;;;;;;;;;;;;;;;;;;6254263;22;19989;-85
2022/07/26 00:04:13;;;;;;;;;;;;;;;;;;6229924;22;20324;-85
2022/07/26 00:06:39;;;;;;;;;;;;;;;;;;6233054;22;19950;-85
2022/07/26 00:09:06;;;;;;;;;;;;;;;;;;6257208;22;20267;-84
2022/07/26 00:11:33;;;;;;;;;;;;;;;;;;6261087;22;19950;-85
2022/07/26 00:13:59;;;;;;;;;;;;;;;;;;6258980;22;19961;-84
2022/07/26 00:16:27;;;;;;;;;;;;;;;;;;6259235;22;19925;-84
2022/07/26 00:18:54;;;;;;;;;;;;;;;;;;6231834;22;19921;-85
2022/07/26 00:21:20;;;;;;;;;;;;;;;;;;6261053;22;19919;-85
2022/07/26 00:23:46;;;;;;;;;;;;;;;;;;6236579;22;19915;-85
2022/07/26 00:26:12;;;;;;;;;;;;;;;;;;6284025;22;19918;-85
2022/07/26 00:28:40;;;;;;;;;;;;;;;;;;6260759;22;19915;-85
2022/07/26 00:31:06;;;;;;;;;;;;;;;;;;6285655;22;19969;-86
2022/07/26 00:33:33;;;;;;;;;;;;;;;;;;6235062;22;20009;-86
2022/07/26 00:36:01;;;;;;;;;;;;;;;;;;6233040;22;19915;-86
2022/07/26 00:38:27;;;;;;;;;;;;;;;;;;6288086;22;20328;-86
2022/07/26 00:40:53;;;;;;;;;;;;;;;;;;6236873;22;19914;-86
2022/07/26 00:43:19;;;;;;;;;;;;;;;;;;6237226;22;19946;-86
2022/07/26 00:45:46;;;;;;;;;;;;;;;;;;6238358;22;19960;-86
2022/07/26 00:48:12;;;;;;;;;;;;;;;;;;6284452;22;20263;-86
2022/07/26 00:50:37;;;;;;;;;;;;;;;;;;6234785;22;19994;-86
2022/07/26 00:53:05;;;;;;;;;;;;;;;;;;6286309;22;19926;-86
2022/07/26 00:55:33;;;;;;;;;;;;;;;;;;6266712;22;19946;-86
2022/07/26 00:58:02;;;;;;;;;;;;;;;;;;6286164;22;19922;-86
2022/07/26 01:00:29;;;;;;;;;;;;;;;;;;6288133;22;19922;-86
2022/07/26 01:03:00;;;;;;;;;;;;;;;;;;6260457;22;19914;-87
2022/07/26 01:05:27;;;;;;;;;;;;;;;;;;6262027;22;19994;-87
2022/07/26 01:07:53;;;;;;;;;;;;;;;;;;6259462;22;20415;-86
2022/07/26 01:10:19;;;;;;;;;;;;;;;;;;6259429;22;20416;-86
2022/07/26 01:12:45;;;;;;;;;;;;;;;;;;6237624;22;19918;-86
2022/07/26 01:15:13;;;;;;;;;;;;;;;;;;6260424;22;19915;-84
2022/07/26 01:17:39;;;;;;;;;;;;;;;;;;6261323;22;20686;-85
2022/07/26 01:20:06;;;;;;;;;;;;;;;;;;6258481;22;19925;-85
2022/07/26 01:22:33;;;;;;;;;;;;;;;;;;6262264;22;19910;-85
2022/07/26 01:25:00;;;;;;;;;;;;;;;;;;6258158;22;19919;-85
2022/07/26 01:27:27;;;;;;;;;;;;;;;;;;6235421;22;20732;-85
2022/07/26 01:29:53;;;;;;;;;;;;;;;;;;6238421;22;19919;-84
2022/07/26 01:32:20;;;;;;;;;;;;;;;;;;6240791;22;19990;-84
2022/07/26 01:34:47;;;;;;;;;;;;;;;;;;6240279;22;19914;-85
2022/07/26 01:37:14;;;;;;;;;;;;;;;;;;6238870;22;19915;-84
2022/07/26 01:39:43;;;;;;;;;;;;;;;;;;6291956;22;19946;-84
2022/07/26 01:42:25;;;;;;;;;;;;;;;;;;6293215;22;19959;-84
2022/07/26 01:44:51;;;;;;;;;;;;;;;;;;6264413;22;19987;-85
2022/07/26 01:47:17;;;;;;;;;;;;;;;;;;6236736;22;19922;-85
2022/07/26 01:49:45;;;;;;;;;;;;;;;;;;6290424;22;20353;-85
2022/07/26 01:52:11;;;;;;;;;;;;;;;;;;6236274;22;19922;-85
2022/07/26 01:54:37;;;;;;;;;;;;;;;;;;6239352;22;20239;-85
2022/07/26 01:57:04;;;;;;;;;;;;;;;;;;6263974;22;19978;-84
2022/07/26 01:59:30;;;;;;;;;;;;;;;;;;6292603;22;19914;-85
2022/07/26 02:01:57;;;;;;;;;;;;;;;;;;6260217;22;19914;-85
2022/07/26 02:07:12;;;;;;;;;;;;;;;;;;6285632;22;19926;-85
2022/07/26 02:09:39;;;;;;;;;;;;;;;;;;6289761;22;20794;-85
2022/07/26 02:12:05;;;;;;;;;;;;;;;;;;6236604;22;19953;-85
2022/07/26 02:14:31;;;;;;;;;;;;;;;;;;6237520;22;19921;-85
2022/07/26 02:16:58;;;;;;;;;;;;;;;;;;6287453;22;19925;-85
2022/07/26 02:19:25;;;;;;;;;;;;;;;;;;6290657;22;20346;-84
2022/07/26 02:21:51;;;;;;;;;;;;;;;;;;6238052;22;19922;-85
2022/07/26 02:24:18;;;;;;;;;;;;;;;;;;6235279;22;19949;-84
2022/07/26 02:26:44;;;;;;;;;;;;;;;;;;6235949;22;19915;-85
2022/07/26 02:29:10;;;;;;;;;;;;;;;;;;6260641;22;19914;-84
2022/07/26 02:31:36;;;;;;;;;;;;;;;;;;6263568;22;20423;-85
2022/07/26 02:34:02;;;;;;;;;;;;;;;;;;6260595;22;20291;-84
2022/07/26 02:36:29;;;;;;;;;;;;;;;;;;6288979;22;20009;-84
2022/07/26 02:39:08;;;;;;;;;;;;;;;;;;6262150;22;19972;-84
2022/07/26 02:41:35;;;;;;;;;;;;;;;;;;6237274;22;19914;-85
2022/07/26 02:44:02;;;;;;;;;;;;;;;;;;6289320;22;19918;-84
2022/07/26 02:46:28;;;;;;;;;;;;;;;;;;6238245;22;19969;-84
2022/07/26 02:48:55;;;;;;;;;;;;;;;;;;6285155;22;19960;-84
2022/07/26 02:51:22;;;;;;;;;;;;;;;;;;6286733;22;19949;-84
2022/07/26 02:53:50;;;;;;;;;;;;;;;;;;6262505;22;19919;-84
2022/07/26 02:56:17;;;;;;;;;;;;;;;;;;6284377;22;19919;-84
2022/07/26 02:58:44;;;;;;;;;;;;;;;;;;6290719;22;19914;-85
2022/07/26 03:01:11;;;;;;;;;;;;;;;;;;6237706;22;19914;-85
2022/07/26 03:03:37;;;;;;;;;;;;;;;;;;6262652;22;19915;-85
2022/07/26 03:06:03;;;;;;;;;;;;;;;;;;6286423;22;19915;-85
2022/07/26 03:08:30;;;;;;;;;;;;;;;;;;6287702;22;19925;-85
2022/07/26 03:10:58;;;;;;;;;;;;;;;;;;6235980;22;19919;-85
2022/07/26 03:13:26;;;;;;;;;;;;;;;;;;6260946;22;19915;-84
2022/07/26 03:15:53;;;;;;;;;;;;;;;;;;6261416;22;19915;-84
2022/07/26 03:18:19;;;;;;;;;;;;;;;;;;6237162;22;20350;-84
2022/07/26 03:20:45;;;;;;;;;;;;;;;;;;6289085;22;19990;-84
2022/07/26 03:23:15;;;;;;;;;;;;;;;;;;6260974;22;19914;-84
2022/07/26 03:25:41;;;;;;;;;;;;;;;;;;6237081;22;20630;-84
2022/07/26 03:28:09;;;;;;;;;;;;;;;;;;6239152;22;19989;-84
2022/07/26 03:30:36;;;;;;;;;;;;;;;;;;6266952;22;19922;-84
2022/07/26 03:33:02;;;;;;;;;;;;;;;;;;6291891;22;19950;-85
2022/07/26 03:35:28;;;;;;;;;;;;;;;;;;6241863;22;19914;-85
2022/07/26 03:37:54;;;;;;;;;;;;;;;;;;6264772;22;19910;-85
2022/07/26 03:40:20;;;;;;;;;;;;;;;;;;6240000;22;19926;-85
2022/07/26 03:42:46;;;;;;;;;;;;;;;;;;6240890;22;20220;-85
2022/07/26 03:45:13;;;;;;;;;;;;;;;;;;6240544;22;20455;-85
2022/07/26 03:47:40;;;;;;;;;;;;;;;;;;6241089;22;19921;-84
2022/07/26 03:50:06;;;;;;;;;;;;;;;;;;6263958;22;19922;-84
2022/07/26 03:52:33;;;;;;;;;;;;;;;;;;6242231;22;19917;-84
2022/07/26 03:56:27;;;;;;;;;;;;;;;;;;6265664;22;19933;-84
2022/07/26 03:57:48;;;;;;;;;;;;;;;;;;6293871;22;20331;-84
2022/07/26 04:00:15;;;;;;;;;;;;;;;;;;6261797;22;20010;-83
2022/07/26 04:02:42;;;;;;;;;;;;;;;;;;6290932;22;19922;-84
2022/07/26 04:05:10;;;;;;;;;;;;;;;;;;6289705;22;19914;-84
2022/07/26 04:07:36;;;;;;;;;;;;;;;;;;6288770;22;19915;-84
2022/07/26 04:10:03;;;;;;;;;;;;;;;;;;6259700;22;19926;-84
2022/07/26 04:12:30;;;;;;;;;;;;;;;;;;6288097;22;19915;-84
2022/07/26 04:14:56;;;;;;;;;;;;;;;;;;6259358;22;19918;-85
2022/07/26 04:17:22;;;;;;;;;;;;;;;;;;6262797;22;19911;-85
2022/07/26 04:19:48;;;;;;;;;;;;;;;;;;6288753;22;19922;-85
2022/07/26 04:22:15;;;;;;;;;;;;;;;;;;6260268;22;20014;-85
2022/07/26 04:24:41;;;;;;;;;;;;;;;;;;6236401;22;19918;-86
2022/07/26 04:27:08;;;;;;;;;;;;;;;;;;6284023;22;19921;-86
2022/07/26 04:29:33;;;;;;;;;;;;;;;;;;6236168;22;20052;-85
2022/07/26 04:31:59;;;;;;;;;;;;;;;;;;6231786;22;19946;-85
2022/07/26 04:34:25;;;;;;;;;;;;;;;;;;6236450;22;19922;-86
2022/07/26 04:36:53;;;;;;;;;;;;;;;;;;6284554;22;19915;-86
2022/07/26 04:39:23;;;;;;;;;;;;;;;;;;6259956;22;20320;-86
2022/07/26 04:41:50;;;;;;;;;;;;;;;;;;6287164;22;19911;-86
2022/07/26 04:44:16;;;;;;;;;;;;;;;;;;6259842;22;20207;-85
2022/07/26 04:46:42;;;;;;;;;;;;;;;;;;6263094;22;19914;-85
2022/07/26 04:49:09;;;;;;;;;;;;;;;;;;6258445;22;19921;-85
2022/07/26 04:51:35;;;;;;;;;;;;;;;;;;6288374;22;20012;-85
2022/07/26 04:54:01;;;;;;;;;;;;;;;;;;6285603;22;20018;-86
2022/07/26 04:56:28;;;;;;;;;;;;;;;;;;6261282;22;19911;-85
2022/07/26 04:59:12;;;;;;;;;;;;;;;;;;6262990;22;20412;-85
2022/07/26 05:01:39;;;;;;;;;;;;;;;;;;6262902;22;20334;-86
2022/07/26 05:04:05;;;;;;;;;;;;;;;;;;6257822;22;19989;-85
2022/07/26 05:06:31;;;;;;;;;;;;;;;;;;6262988;22;19921;-85
2022/07/26 05:08:59;;;;;;;;;;;;;;;;;;6260083;22;19914;-86
2022/07/26 05:11:25;;;;;;;;;;;;;;;;;;6260074;22;19923;-86
2022/07/26 05:13:51;;;;;;;;;;;;;;;;;;6260529;22;19914;-86
2022/07/26 05:16:17;;;;;;;;;;;;;;;;;;6259088;22;19914;-84
2022/07/26 05:18:44;;;;;;;;;;;;;;;;;;6228513;22;19922;-85
2022/07/26 05:21:10;;;;;;;;;;;;;;;;;;6258263;22;19949;-86
2022/07/26 05:23:36;;;;;;;;;;;;;;;;;;6262053;22;19914;-86
2022/07/26 05:26:04;;;;;;;;;;;;;;;;;;6259923;22;19919;-85
2022/07/26 05:28:36;;;;;;;;;;;;;;;;;;6290998;22;19953;-85
2022/07/26 05:31:49;;;;;;;;;;;;;;;;;;;;;
2022/07/26 05:40:34;;;;;;;;;;;;;;;;;;6296682;22;20413;-77
2022/07/26 05:43:02;;;;;;;;;;;;;;;;;;6289851;22;20373;-77
2022/07/26 05:45:28;;;;;;;;;;;;;;;;;;6242478;22;19983;-76
2022/07/26 05:47:55;;;;;;;;;;;;;;;;;;6267939;22;20343;-77
2022/07/26 05:50:24;;;;;;;;;;;;;;;;;;6241690;22;19976;-77
2022/07/26 05:52:55;;;;;;;;;;;;;;;;;;6263162;22;20330;-76
2022/07/26 05:55:21;;;;;;;;;;;;;;;;;;6268730;22;19927;-78
2022/07/26 05:57:47;;;;;;;;;;;;;;;;;;6268491;22;20021;-77
2022/07/26 06:00:13;;;;;;;;;;;;;;;;;;6242028;22;19922;-77
2022/07/26 06:02:39;;;;;;;;;;;;;;;;;;6295573;22;19918;-77
2022/07/26 06:05:05;;;;;;;;;;;;;;;;;;6290321;22;19930;-78
2022/07/26 06:07:31;;;;;;;;;;;;;;;;;;6295462;22;20385;-77
2022/07/26 06:15:42;;;;;;;;;;;;;;;;;;6311100;22;20621;-85
2022/07/26 06:18:08;;;;;;;;;;;;;;;;;;6298326;22;19997;-85
2022/07/26 06:20:34;;;;;;;;;;;;;;;;;;6304211;22;20015;-85
2022/07/26 06:23:00;;;;;;;;;;;;;;;;;;6300769;22;19918;-85
2022/07/26 06:25:26;;;;;;;;;;;;;;;;;;6302794;22;19917;-85
2022/07/26 06:27:52;;;;;;;;;;;;;;;;;;6302290;22;19915;-85
2022/07/26 06:30:18;;;;;;;;;;;;;;;;;;6330222;22;19972;-85
2022/07/26 06:32:44;;;;;;;;;;;;;;;;;;6302836;22;19914;-85
2022/07/26 06:35:10;;;;;;;;;;;;;;;;;;6300440;22;19959;-85
2022/07/26 06:37:36;;;;;;;;;;;;;;;;;;6303047;22;19914;-85
2022/07/26 06:40:03;;;;;;;;;;;;;;;;;;6301455;22;19910;-85
2022/07/26 06:42:31;;;;;;;;;;;;;;;;;;6305585;22;19910;-85
2022/07/26 06:44:59;;;;;;;;;;;;;;;;;;6302753;22;19917;-85
2022/07/26 06:47:24;;;;;;;;;;;;;;;;;;6304635;22;19914;-85
2022/07/26 06:49:50;;;;;;;;;;;;;;;;;;6304452;22;20327;-85
2022/07/26 06:52:16;;;;;;;;;;;;;;;;;;6302873;22;20375;-85
2022/07/26 06:54:43;;;;;;;;;;;;;;;;;;6304639;22;20326;-85
2022/07/26 06:57:10;;;;;;;;;;;;;;;;;;6302295;22;20398;-85
2022/07/26 06:59:38;;;;;;;;;;;;;;;;;;6332573;22;19910;-85
2022/07/26 07:02:05;;;;;;;;;;;;;;;;;;6302944;22;20292;-86
2022/07/26 07:04:32;;;;;;;;;;;;;;;;;;6304491;22;20365;-85
2022/07/26 07:07:04;;;;;;;;;;;;;;;;;;6353446;22;20023;-85
2022/07/26 07:09:31;;;;;;;;;;;;;;;;;;6363896;22;19926;-85
2022/07/26 07:12:00;;;;;;;;;;;;;;;;;;6361898;22;19914;-86
2022/07/26 07:14:28;;;;;;;;;;;;;;;;;;6363204;22;19922;-85
2022/07/26 07:17:10;;;;;;;;;;;;;;;;;;6361376;22;19917;-85
2022/07/26 07:19:36;;;;;;;;;;;;;;;;;;6335178;22;20074;-85
2022/07/26 07:22:03;;;;;;;;;;;;;;;;;;6332920;22;19914;-85
2022/07/26 07:24:30;;;;;;;;;;;;;;;;;;6335504;22;19963;-85
2022/07/26 07:26:59;;;;;;;;;;;;;;;;;;6332995;22;19914;-86
2022/07/26 07:29:26;;;;;;;;;;;;;;;;;;6361504;22;19920;-85
2022/07/26 07:32:01;;;;;;;;;;;;;;;;;;6335275;22;19910;-85
2022/07/26 07:34:29;;;;;;;;;;;;;;;;;;6363603;22;19952;-85
2022/07/26 07:36:54;;;;;;;;;;;;;;;;;;6333045;22;19910;-85
2022/07/26 07:39:20;;;;;;;;;;;;;;;;;;6335440;22;19949;-86
2022/07/26 07:41:46;;;;;;;;;;;;;;;;;;6336121;22;20234;-85
2022/07/26 07:44:14;;;;;;;;;;;;;;;;;;6332789;22;20017;-85
2022/07/26 07:46:41;;;;;;;;;;;;;;;;;;6336007;22;19914;-85
2022/07/26 07:49:07;;;;;;;;;;;;;;;;;;6333035;22;20284;-85
2022/07/26 07:51:34;;;;;;;;;;;;;;;;;;6335782;22;19914;-85
2022/07/26 07:54:04;;;;;;;;;;;;;;;;;;6333536;22;20259;-85
2022/07/26 07:56:31;;;;;;;;;;;;;;;;;;6335855;22;20240;-85
2022/07/26 07:58:57;;;;;;;;;;;;;;;;;;6333330;22;19914;-85
2022/07/26 08:01:23;;;;;;;;;;;;;;;;;;6336192;22;19910;-85
2022/07/26 08:04:04;;;;;;;;;;;;;;;;;;6303734;22;19917;-85
2022/07/26 08:06:31;;;;;;;;;;;;;;;;;;6302405;22;19942;-85
2022/07/26 08:08:58;;;;;;;;;;;;;;;;;;6274612;22;19918;-85
2022/07/26 08:11:26;;;;;;;;;;;;;;;;;;6277152;22;19986;-85
2022/07/26 08:13:52;;;;;;;;;;;;;;;;;;6302514;22;19953;-85
2022/07/26 08:16:22;;;;;;;;;;;;;;;;;;6303101;22;20003;-85
2022/07/26 08:18:48;;;;;;;;;;;;;;;;;;6302472;22;19985;-85
2022/07/26 08:21:15;;;;;;;;;;;;;;;;;;6300372;22;19957;-85
2022/07/26 08:23:42;;;;;;;;;;;;;;;;;;6276022;22;19949;-85
2022/07/26 08:26:10;;;;;;;;;;;;;;;;;;6300107;22;19910;-85
2022/07/26 08:28:36;;;;;;;;;;;;;;;;;;6276187;22;20654;-85
2022/07/26 08:31:02;;;;;;;;;;;;;;;;;;6299986;22;19957;-85
2022/07/26 08:33:29;;;;;;;;;;;;;;;;;;6276686;22;19979;-85
2022/07/26 08:35:56;;;;;;;;;;;;;;;;;;6323727;22;19911;-85
2022/07/26 08:38:23;;;;;;;;;;;;;;;;;;6304000;22;19941;-85
2022/07/26 08:40:49;;;;;;;;;;;;;;;;;;6305806;22;19915;-86
2022/07/26 08:43:15;;;;;;;;;;;;;;;;;;6327322;22;19969;-85
2022/07/26 08:45:44;;;;;;;;;;;;;;;;;;6307726;22;19910;-85
2022/07/26 08:48:10;;;;;;;;;;;;;;;;;;6326073;22;19915;-85
2022/07/26 08:50:37;;;;;;;;;;;;;;;;;;6327698;22;20349;-85
2022/07/26 08:53:08;;;;;;;;;;;;;;;;;;6325171;22;20019;-85
2022/07/26 08:55:35;;;;;;;;;;;;;;;;;;6353716;22;19985;-86
2022/07/26 08:58:03;;;;;;;;;;;;;;;;;;6325334;22;19921;-85
2022/07/26 09:00:30;;;;;;;;;;;;;;;;;;6302365;22;19949;-86
2022/07/26 09:02:56;;;;;;;;;;;;;;;;;;6322842;22;19910;-85
2022/07/26 09:05:23;;;;;;;;;;;;;;;;;;6329676;22;19911;-85
2022/07/26 09:07:49;;;;;;;;;;;;;;;;;;6330594;22;20003;-85
2022/07/26 09:10:15;;;;;;;;;;;;;;;;;;6301801;22;19915;-86
2022/07/26 09:12:41;;;;;;;;;;;;;;;;;;6304240;22;19914;-85
2022/07/26 09:15:07;;;;;;;;;;;;;;;;;;6301271;22;19914;-85
2022/07/26 09:17:43;;;;;;;;;;;;;;;;;;6331701;22;19925;-86
2022/07/26 09:20:10;;;;;;;;;;;;;;;;;;6327694;22;19915;-86
2022/07/26 09:22:38;;;;;;;;;;;;;;;;;;6303554;22;19938;-86
2022/07/26 09:25:05;;;;;;;;;;;;;;;;;;6301292;22;19964;-85
2022/07/26 09:27:32;;;;;;;;;;;;;;;;;;6329821;22;19917;-85
2022/07/26 09:30:00;;;;;;;;;;;;;;;;;;6326788;22;20239;-86
2022/07/26 09:32:26;;;;;;;;;;;;;;;;;;6355870;22;19910;-86
2022/07/26 09:34:52;;;;;;;;;;;;;;;;;;6303118;22;19981;-86
2022/07/26 09:37:18;;;;;;;;;;;;;;;;;;6328883;22;19911;-85
2022/07/26 09:39:45;;;;;;;;;;;;;;;;;;6329387;22;19921;-85
2022/07/26 09:42:11;;;;;;;;;;;;;;;;;;6327101;22;19963;-86
2022/07/26 09:44:38;;;;;;;;;;;;;;;;;;6329011;22;19910;-86
2022/07/26 09:47:05;;;;;;;;;;;;;;;;;;6327093;22;19914;-86
2022/07/26 09:49:32;;;;;;;;;;;;;;;;;;6319178;22;19950;-87
2022/07/26 09:52:00;;;;;;;;;;;;;;;;;;6322691;22;19917;-86
2022/07/26 09:54:27;;;;;;;;;;;;;;;;;;6329235;22;20295;-86
2022/07/26 09:56:53;;;;;;;;;;;;;;;;;;6300963;22;20323;-86
2022/07/26 09:59:34;;;;;;;;;;;;;;;;;;6235086;23;19923;-86
2022/07/26 10:02:00;;;;;;;;;;;;;;;;;;6233628;23;19916;-86
2022/07/26 10:04:26;;;;;;;;;;;;;;;;;;6209816;23;19966;-85
2022/07/26 10:06:52;;;;;;;;;;;;;;;;;;6209449;23;20237;-86
2022/07/26 10:09:27;;;;;;;;;;;;;;;;;;6209853;23;19911;-86
2022/07/26 10:11:54;;;;;;;;;;;;;;;;;;6208621;23;19923;-86
2022/07/26 10:14:20;;;;;;;;;;;;;;;;;;6201054;23;19920;-86
2022/07/26 10:16:55;;;;;;;;;;;;;;;;;;6179679;23;19911;-86
2022/07/26 10:19:34;;;;;;;;;;;;;;;;;;6182280;23;19918;-86
2022/07/26 10:22:01;;;;;;;;;;;;;;;;;;6153349;23;20355;-86
2022/07/26 10:24:27;;;;;;;;;;;;;;;;;;6181186;23;19934;-85
2022/07/26 10:26:55;;;;;;;;;;;;;;;;;;6180204;23;19916;-86
2022/07/26 10:29:22;;;;;;;;;;;;;;;;;;6156045;23;20066;-86
2022/07/26 10:31:49;;;;;;;;;;;;;;;;;;6274267;22;19981;-86
2022/07/26 10:34:15;;;;;;;;;;;;;;;;;;6297020;22;19954;-86
2022/07/26 10:36:42;;;;;;;;;;;;;;;;;;6299410;22;19942;-86
2022/07/26 10:39:09;;;;;;;;;;;;;;;;;;6269018;22;19911;-85
2022/07/26 10:41:36;;;;;;;;;;;;;;;;;;6298237;22;20510;-86
2022/07/26 10:44:03;;;;;;;;;;;;;;;;;;6295433;22;19914;-86
2022/07/26 10:46:29;;;;;;;;;;;;;;;;;;6297694;22;19910;-86
2022/07/26 10:48:57;;;;;;;;;;;;;;;;;;6270070;22;20341;-86
2022/07/26 10:51:24;;;;;;;;;;;;;;;;;;6272680;22;20231;-86
2022/07/26 10:53:50;;;;;;;;;;;;;;;;;;6299472;22;19919;-86
2022/07/26 10:56:16;;;;;;;;;;;;;;;;;;6246070;22;19965;-86
2022/07/26 10:58:42;;;;;;;;;;;;;;;;;;6273556;22;20409;-86
2022/07/26 11:01:09;;;;;;;;;;;;;;;;;;6271278;22;19949;-86
2022/07/26 11:03:35;;;;;;;;;;;;;;;;;;6299719;22;19911;-86
2022/07/26 11:06:02;;;;;;;;;;;;;;;;;;6322967;22;19914;-86
2022/07/26 11:08:29;;;;;;;;;;;;;;;;;;6299042;22;20338;-85
2022/07/26 11:10:57;;;;;;;;;;;;;;;;;;6321957;22;19954;-85
2022/07/26 11:13:23;;;;;;;;;;;;;;;;;;6299238;22;19930;-85
2022/07/26 11:15:49;;;;;;;;;;;;;;;;;;6273853;22;19937;-86
2022/07/26 11:18:15;;;;;;;;;;;;;;;;;;6271094;22;19918;-85
2022/07/26 11:20:42;;;;;;;;;;;;;;;;;;6273516;22;19919;-86
2022/07/26 11:23:09;;;;;;;;;;;;;;;;;;6271434;22;19918;-86
2022/07/26 11:25:36;;;;;;;;;;;;;;;;;;6273784;22;20275;-85
2022/07/26 11:28:03;;;;;;;;;;;;;;;;;;6271290;22;19959;-86
2022/07/26 11:30:30;;;;;;;;;;;;;;;;;;6299527;22;19919;-85
2022/07/26 11:32:57;;;;;;;;;;;;;;;;;;6296800;22;19990;-86
2022/07/26 11:35:23;;;;;;;;;;;;;;;;;;6273286;22;19933;-86
2022/07/26 11:37:49;;;;;;;;;;;;;;;;;;6301565;22;19910;-85
2022/07/26 11:40:15;;;;;;;;;;;;;;;;;;6298893;22;19934;-86
2022/07/26 11:42:41;;;;;;;;;;;;;;;;;;6301261;22;19911;-86
2022/07/26 11:45:07;;;;;;;;;;;;;;;;;;6271220;22;19915;-85
2022/07/26 11:47:34;;;;;;;;;;;;;;;;;;6273561;22;20307;-85
2022/07/26 11:50:00;;;;;;;;;;;;;;;;;;6270891;22;20001;-85
2022/07/26 11:52:26;;;;;;;;;;;;;;;;;;6299444;22;19942;-86
2022/07/26 11:54:53;;;;;;;;;;;;;;;;;;6271670;22;19930;-85
2022/07/26 11:57:19;;;;;;;;;;;;;;;;;;6273079;22;19921;-86
2022/07/26 11:59:45;;;;;;;;;;;;;;;;;;6301234;22;19911;-86
2022/07/26 12:02:13;;;;;;;;;;;;;;;;;;6270841;22;19915;-86
2022/07/26 12:04:40;;;;;;;;;;;;;;;;;;6298863;22;19914;-86
2022/07/26 12:07:06;;;;;;;;;;;;;;;;;;6298152;22;19911;-85
2022/07/26 12:09:32;;;;;;;;;;;;;;;;;;6300505;22;19998;-85
2022/07/26 12:11:58;;;;;;;;;;;;;;;;;;6298527;22;20280;-86
2022/07/26 12:14:25;;;;;;;;;;;;;;;;;;6315876;22;19992;-86
2022/07/26 12:16:53;;;;;;;;;;;;;;;;;;6364163;22;19913;-85
2022/07/26 12:19:19;;;;;;;;;;;;;;;;;;6335940;22;20379;-86
2022/07/26 12:21:49;;;;;;;;;;;;;;;;;;6364207;22;20009;-85
2022/07/26 12:24:17;;;;;;;;;;;;;;;;;;6361223;22;19952;-85
2022/07/26 12:26:44;;;;;;;;;;;;;;;;;;6363960;22;19910;-85
2022/07/26 12:29:25;;;;;;;;;;;;;;;;;;6360820;22;19936;-86
2022/07/26 12:31:51;;;;;;;;;;;;;;;;;;6362765;22;19918;-86
2022/07/26 12:34:19;;;;;;;;;;;;;;;;;;6333240;22;19922;-86
2022/07/26 12:36:45;;;;;;;;;;;;;;;;;;6335493;22;19941;-85
2022/07/26 12:39:11;;;;;;;;;;;;;;;;;;6332357;22;19959;-86
2022/07/26 12:41:38;;;;;;;;;;;;;;;;;;6362399;22;19910;-85
2022/07/26 12:44:06;;;;;;;;;;;;;;;;;;6333404;22;19956;-86
2022/07/26 12:46:33;;;;;;;;;;;;;;;;;;6335227;22;19914;-85
2022/07/26 12:49:07;;;;;;;;;;;;;;;;;;6360828;22;19959;-85
2022/07/26 12:51:35;;;;;;;;;;;;;;;;;;6335308;22;19918;-86
2022/07/26 12:54:05;;;;;;;;;;;;;;;;;;6331996;22;20501;-85
2022/07/26 12:56:32;;;;;;;;;;;;;;;;;;6360021;22;19922;-85
2022/07/26 12:59:01;;;;;;;;;;;;;;;;;;6357295;22;19985;-85
2022/07/26 13:01:28;;;;;;;;;;;;;;;;;;6360751;22;19985;-86
2022/07/26 13:03:55;;;;;;;;;;;;;;;;;;6358530;22;20001;-86
2022/07/26 13:06:21;;;;;;;;;;;;;;;;;;6333478;22;19937;-85
2022/07/26 13:08:49;;;;;;;;;;;;;;;;;;6360834;22;19917;-85
2022/07/26 13:11:15;;;;;;;;;;;;;;;;;;6359419;22;20284;-85
2022/07/26 13:13:42;;;;;;;;;;;;;;;;;;6335422;22;20308;-85
2022/07/26 13:16:11;;;;;;;;;;;;;;;;;;6327815;22;19922;-86
2022/07/26 13:18:38;;;;;;;;;;;;;;;;;;6362522;22;19959;-86
2022/07/26 13:21:05;;;;;;;;;;;;;;;;;;6360402;22;20370;-85
2022/07/26 13:23:32;;;;;;;;;;;;;;;;;;6363103;22;19925;-85
2022/07/26 13:25:59;;;;;;;;;;;;;;;;;;6360726;22;19910;-86
2022/07/26 13:28:41;;;;;;;;;;;;;;;;;;6362426;22;20372;-85
2022/07/26 13:31:07;;;;;;;;;;;;;;;;;;6360690;22;19914;-86
2022/07/26 13:33:36;;;;;;;;;;;;;;;;;;6335011;22;19920;-86
2022/07/26 13:36:04;;;;;;;;;;;;;;;;;;6357792;22;19917;-86
2022/07/26 13:38:34;;;;;;;;;;;;;;;;;;6335172;22;20224;-85
2022/07/26 13:41:05;;;;;;;;;;;;;;;;;;6332860;22;19945;-85
2022/07/26 13:43:32;;;;;;;;;;;;;;;;;;6334163;22;19918;-86
2022/07/26 13:45:58;;;;;;;;;;;;;;;;;;6331531;22;19943;-86
2022/07/26 13:48:24;;;;;;;;;;;;;;;;;;6334131;22;20013;-85
2022/07/26 13:50:50;;;;;;;;;;;;;;;;;;6360706;22;20018;-86
2022/07/26 13:53:17;;;;;;;;;;;;;;;;;;6331781;22;19913;-86
2022/07/26 13:55:43;;;;;;;;;;;;;;;;;;6334557;22;20030;-86
2022/07/26 13:58:10;;;;;;;;;;;;;;;;;;6332584;22;19985;-86
2022/07/26 14:00:37;;;;;;;;;;;;;;;;;;6336670;22;19914;-85
2022/07/26 14:03:03;;;;;;;;;;;;;;;;;;6333958;22;19910;-86
2022/07/26 14:05:29;;;;;;;;;;;;;;;;;;6336785;22;19924;-86
2022/07/26 14:07:55;;;;;;;;;;;;;;;;;;6333469;22;19910;-86
2022/07/26 14:10:22;;;;;;;;;;;;;;;;;;6336819;22;20404;-85
2022/07/26 14:12:49;;;;;;;;;;;;;;;;;;6336737;22;20271;-86
2022/07/26 14:15:15;;;;;;;;;;;;;;;;;;6333739;22;19918;-86
2022/07/26 14:17:45;;;;;;;;;;;;;;;;;;6336980;22;20574;-86
2022/07/26 14:20:12;;;;;;;;;;;;;;;;;;6334175;22;19978;-86
2022/07/26 14:22:40;;;;;;;;;;;;;;;;;;6336631;22;19910;-86
2022/07/26 14:25:19;;;;;;;;;;;;;;;;;;6337575;22;19914;-85
2022/07/26 14:27:46;;;;;;;;;;;;;;;;;;6334448;22;19910;-85
2022/07/26 14:30:12;;;;;;;;;;;;;;;;;;6333933;22;19918;-86
2022/07/26 14:32:39;;;;;;;;;;;;;;;;;;6336202;22;19914;-86
2022/07/26 14:35:06;;;;;;;;;;;;;;;;;;6333938;22;19917;-86
2022/07/26 14:37:34;;;;;;;;;;;;;;;;;;6336884;22;20402;-86
2022/07/26 14:40:01;;;;;;;;;;;;;;;;;;6333743;22;19921;-85
2022/07/26 14:42:27;;;;;;;;;;;;;;;;;;6336079;22;20350;-86
2022/07/26 14:44:54;;;;;;;;;;;;;;;;;;6334213;22;20352;-86
2022/07/26 14:47:21;;;;;;;;;;;;;;;;;;6336245;22;19950;-85
2022/07/26 14:49:48;;;;;;;;;;;;;;;;;;6336054;22;20309;-86
2022/07/26 14:52:15;;;;;;;;;;;;;;;;;;6360356;22;20227;-85
2022/07/26 14:54:41;;;;;;;;;;;;;;;;;;6335727;22;19914;-85
2022/07/26 14:57:08;;;;;;;;;;;;;;;;;;6334418;22;19975;-85
2022/07/26 14:59:35;;;;;;;;;;;;;;;;;;6336102;22;19910;-85
2022/07/26 15:02:02;;;;;;;;;;;;;;;;;;6334134;22;20413;-86
2022/07/26 15:04:29;;;;;;;;;;;;;;;;;;6336103;22;19980;-85
2022/07/26 15:06:55;;;;;;;;;;;;;;;;;;6361945;22;19921;-86
2022/07/26 15:09:23;;;;;;;;;;;;;;;;;;6364137;22;20280;-85
2022/07/26 15:11:50;;;;;;;;;;;;;;;;;;6335523;22;20366;-85
2022/07/26 15:14:18;;;;;;;;;;;;;;;;;;6333289;22;19989;-86
2022/07/26 15:16:45;;;;;;;;;;;;;;;;;;6362403;22;19914;-86
2022/07/26 15:19:12;;;;;;;;;;;;;;;;;;6331473;22;19918;-85
2022/07/26 15:21:39;;;;;;;;;;;;;;;;;;6333830;22;20335;-85
2022/07/26 15:24:08;;;;;;;;;;;;;;;;;;6359679;22;19910;-86
2022/07/26 15:26:34;;;;;;;;;;;;;;;;;;6361708;22;19942;-85
2022/07/26 15:29:00;;;;;;;;;;;;;;;;;;6359095;22;19971;-86
2022/07/26 15:31:26;;;;;;;;;;;;;;;;;;6335454;22;19918;-86
2022/07/26 15:33:52;;;;;;;;;;;;;;;;;;6335458;22;20187;-86
2022/07/26 15:36:18;;;;;;;;;;;;;;;;;;6335234;22;19989;-86
2022/07/26 15:38:46;;;;;;;;;;;;;;;;;;6335644;22;19910;-86
2022/07/26 15:41:13;;;;;;;;;;;;;;;;;;6334114;22;19967;-86
2022/07/26 15:43:41;;;;;;;;;;;;;;;;;;6363752;22;19948;-86
2022/07/26 15:46:08;;;;;;;;;;;;;;;;;;6333180;22;20342;-85
2022/07/26 15:48:34;;;;;;;;;;;;;;;;;;6335710;22;19910;-86
2022/07/26 15:51:01;;;;;;;;;;;;;;;;;;6333480;22;19937;-86
2022/07/26 15:53:30;;;;;;;;;;;;;;;;;;6335402;22;19971;-85
2022/07/26 15:55:57;;;;;;;;;;;;;;;;;;6361554;22;19910;-86
2022/07/26 15:58:23;;;;;;;;;;;;;;;;;;6335334;22;19910;-85
2022/07/26 16:00:49;;;;;;;;;;;;;;;;;;6335512;22;19989;-86
2022/07/26 16:03:18;;;;;;;;;;;;;;;;;;6363853;22;19914;-85
2022/07/26 16:05:46;;;;;;;;;;;;;;;;;;6335266;22;19910;-86
2022/07/26 16:08:13;;;;;;;;;;;;;;;;;;6332694;22;20321;-85
2022/07/26 16:10:40;;;;;;;;;;;;;;;;;;6335384;22;19918;-85
2022/07/26 16:13:07;;;;;;;;;;;;;;;;;;6333517;22;19955;-85
2022/07/26 16:15:35;;;;;;;;;;;;;;;;;;6334725;22;19924;-85
2022/07/26 16:18:02;;;;;;;;;;;;;;;;;;6333023;22;19918;-85
2022/07/26 16:20:28;;;;;;;;;;;;;;;;;;6335580;22;19982;-86
2022/07/26 16:23:00;;;;;;;;;;;;;;;;;;6336547;22;19960;-86
2022/07/26 16:25:27;;;;;;;;;;;;;;;;;;6335724;22;19914;-85
2022/07/26 16:27:53;;;;;;;;;;;;;;;;;;6333212;22;19916;-86
2022/07/26 16:30:19;;;;;;;;;;;;;;;;;;6363542;22;19992;-86
2022/07/26 16:32:45;;;;;;;;;;;;;;;;;;6335156;22;19933;-85
2022/07/26 16:35:12;;;;;;;;;;;;;;;;;;6332499;22;19913;-85
2022/07/26 16:37:38;;;;;;;;;;;;;;;;;;6335064;22;19910;-85
2022/07/26 16:40:05;;;;;;;;;;;;;;;;;;6332582;22;20288;-85
2022/07/26 16:42:33;;;;;;;;;;;;;;;;;;6334676;22;19994;-85
2022/07/26 16:45:00;;;;;;;;;;;;;;;;;;6332799;22;20379;-85
2022/07/26 16:47:27;;;;;;;;;;;;;;;;;;6336090;22;20013;-85
2022/07/26 16:49:54;;;;;;;;;;;;;;;;;;6333380;22;19921;-86
2022/07/26 16:52:22;;;;;;;;;;;;;;;;;;6335586;22;20249;-85
2022/07/26 16:54:49;;;;;;;;;;;;;;;;;;6336077;22;20277;-85
2022/07/26 16:57:15;;;;;;;;;;;;;;;;;;6333372;22;19917;-85
2022/07/26 16:59:42;;;;;;;;;;;;;;;;;;6334968;22;19989;-85
2022/07/26 17:02:09;;;;;;;;;;;;;;;;;;6333179;22;19921;-85